createdAt,value
2018-07-23T00:00:53.548Z,0.00
2018-07-23T00:01:53.468Z,0.00
2018-07-23T00:02:53.399Z,0.00
2018-07-23T00:03:53.323Z,0.00
2018-07-23T00:04:53.252Z,0.00
2018-07-23T00:05:53.198Z,0.00
2018-07-23T00:06:53.105Z,0.00
2018-07-23T00:07:53.030Z,0.00
2018-07-23T00:08:52.960Z,0.00
2018-07-23T00:09:52.888Z,0.00
2018-07-23T00:10:52.831Z,0.00
2018-07-23T00:11:52.740Z,0.00
2018-07-23T00:12:52.666Z,0.00
2018-07-23T00:13:52.597Z,0.00
2018-07-23T00:14:52.538Z,0.00
2018-07-23T00:15:52.450Z,0.00
2018-07-23T00:16:52.383Z,0.00
2018-07-23T00:17:52.303Z,0.00
2018-07-23T00:18:52.230Z,0.00
2018-07-23T00:19:52.157Z,0.00
2018-07-23T00:20:52.084Z,0.00
2018-07-23T00:21:52.012Z,0.00
2018-07-23T00:22:51.938Z,0.00
2018-07-23T00:23:51.868Z,0.00
2018-07-23T00:24:51.791Z,0.00
2018-07-23T00:25:51.718Z,0.00
2018-07-23T00:26:51.646Z,0.00
2018-07-23T00:27:51.573Z,0.00
2018-07-23T00:28:51.502Z,0.00
2018-07-23T00:29:51.430Z,0.00
2018-07-23T00:30:51.357Z,0.00
2018-07-23T00:31:51.279Z,0.00
2018-07-23T00:32:51.241Z,0.00
2018-07-23T00:33:51.138Z,0.00
2018-07-23T00:34:51.061Z,0.00
2018-07-23T00:35:51.036Z,0.00
2018-07-23T00:36:50.918Z,0.00
2018-07-23T00:37:50.844Z,0.00
2018-07-23T00:38:50.770Z,0.00
2018-07-23T00:39:50.700Z,0.00
2018-07-23T00:40:50.626Z,0.00
2018-07-23T00:41:50.553Z,0.00
2018-07-23T00:42:50.491Z,0.00
2018-07-23T00:43:50.407Z,0.00
2018-07-23T00:44:50.337Z,0.00
2018-07-23T00:45:50.280Z,0.00
2018-07-23T00:46:50.187Z,0.00
2018-07-23T00:47:50.126Z,0.00
2018-07-23T00:48:50.043Z,0.00
2018-07-23T00:49:49.970Z,0.00
2018-07-23T00:50:49.894Z,0.00
2018-07-23T00:51:49.828Z,0.00
2018-07-23T00:52:49.752Z,0.00
2018-07-23T00:53:49.710Z,0.00
2018-07-23T00:54:49.603Z,0.00
2018-07-23T00:55:49.532Z,0.00
2018-07-23T00:56:49.460Z,0.00
2018-07-23T00:57:49.384Z,0.00
2018-07-23T00:58:49.311Z,0.00
2018-07-23T00:59:49.237Z,0.00
2018-07-23T01:00:49.177Z,0.00
2018-07-23T01:01:49.097Z,0.00
2018-07-23T01:02:49.018Z,0.00
2018-07-23T01:03:48.946Z,0.00
2018-07-23T01:04:48.874Z,0.00
2018-07-23T01:05:48.802Z,0.00
2018-07-23T01:06:48.727Z,0.00
2018-07-23T01:07:48.658Z,0.00
2018-07-23T01:08:48.581Z,0.00
2018-07-23T01:09:48.510Z,0.00
2018-07-23T01:10:48.440Z,0.00
2018-07-23T01:11:48.360Z,0.00
2018-07-23T01:12:48.290Z,0.00
2018-07-23T01:13:48.217Z,0.00
2018-07-23T01:14:48.152Z,0.00
2018-07-23T01:15:48.068Z,0.00
2018-07-23T01:16:47.996Z,0.00
2018-07-23T01:17:47.924Z,0.00
2018-07-23T01:18:47.850Z,0.00
2018-07-23T01:19:47.778Z,0.00
2018-07-23T01:20:47.709Z,0.00
2018-07-23T01:21:47.635Z,0.00
2018-07-23T01:22:47.562Z,0.00
2018-07-23T01:23:47.490Z,0.00
2018-07-23T01:24:47.413Z,0.00
2018-07-23T01:25:47.338Z,0.00
2018-07-23T01:26:47.266Z,0.00
2018-07-23T01:27:47.193Z,0.00
2018-07-23T01:28:47.120Z,0.00
2018-07-23T01:29:47.053Z,0.00
2018-07-23T01:30:46.980Z,0.00
2018-07-23T01:31:46.912Z,0.00
2018-07-23T01:32:46.829Z,0.00
2018-07-23T01:33:46.755Z,0.00
2018-07-23T01:34:46.679Z,0.00
2018-07-23T01:35:46.606Z,0.00
2018-07-23T01:36:46.545Z,0.00
2018-07-23T01:37:46.468Z,0.00
2018-07-23T01:38:46.389Z,0.00
2018-07-23T01:39:46.314Z,0.00
2018-07-23T01:40:46.254Z,0.00
2018-07-23T01:41:46.170Z,0.00
2018-07-23T01:42:46.093Z,0.00
2018-07-23T01:43:46.032Z,0.00
2018-07-23T01:44:45.971Z,0.00
2018-07-23T01:45:45.876Z,0.00
2018-07-23T01:46:45.802Z,0.00
2018-07-23T01:47:45.733Z,0.00
2018-07-23T01:48:45.657Z,0.00
2018-07-23T01:49:45.584Z,0.00
2018-07-23T01:50:45.511Z,0.00
2018-07-23T01:51:45.436Z,0.00
2018-07-23T01:52:45.363Z,0.00
2018-07-23T01:53:45.299Z,0.00
2018-07-23T01:54:45.230Z,0.00
2018-07-23T01:55:45.143Z,0.00
2018-07-23T01:56:45.071Z,0.00
2018-07-23T01:57:44.995Z,0.00
2018-07-23T01:58:44.929Z,0.00
2018-07-23T01:59:44.851Z,0.00
2018-07-23T02:00:44.778Z,0.00
2018-07-23T02:01:44.706Z,0.00
2018-07-23T02:02:44.634Z,0.00
2018-07-23T02:03:44.557Z,0.00
2018-07-23T02:04:44.491Z,0.00
2018-07-23T02:05:44.427Z,0.00
2018-07-23T02:06:44.335Z,0.00
2018-07-23T02:07:44.263Z,0.00
2018-07-23T02:08:44.194Z,0.00
2018-07-23T02:09:44.119Z,0.00
2018-07-23T02:10:44.048Z,0.00
2018-07-23T02:11:43.971Z,0.00
2018-07-23T02:12:43.914Z,0.00
2018-07-23T02:13:43.823Z,0.00
2018-07-23T02:14:43.752Z,0.00
2018-07-23T02:15:43.682Z,0.00
2018-07-23T02:16:43.604Z,0.00
2018-07-23T02:17:43.529Z,0.00
2018-07-23T02:18:43.457Z,0.00
2018-07-23T02:19:43.389Z,0.00
2018-07-23T02:20:43.316Z,0.00
2018-07-23T02:21:43.243Z,0.00
2018-07-23T02:22:43.163Z,0.00
2018-07-23T02:23:43.091Z,0.00
2018-07-23T02:24:43.022Z,0.00
2018-07-23T02:25:42.948Z,0.00
2018-07-23T02:26:42.870Z,0.00
2018-07-23T02:27:42.801Z,0.00
2018-07-23T02:28:42.737Z,0.00
2018-07-23T02:29:42.654Z,0.00
2018-07-23T02:30:42.593Z,0.00
2018-07-23T02:31:42.505Z,0.00
2018-07-23T02:32:42.438Z,0.00
2018-07-23T02:33:42.364Z,0.00
2018-07-23T02:34:42.286Z,0.00
2018-07-23T02:35:42.230Z,0.00
2018-07-23T02:36:42.141Z,0.00
2018-07-23T02:37:42.065Z,0.00
2018-07-23T02:38:41.994Z,0.00
2018-07-23T02:39:41.936Z,0.00
2018-07-23T02:40:41.844Z,0.00
2018-07-23T02:41:41.774Z,0.00
2018-07-23T02:42:41.706Z,0.00
2018-07-23T02:43:41.627Z,0.00
2018-07-23T02:44:41.552Z,0.00
2018-07-23T02:45:41.483Z,0.00
2018-07-23T02:46:41.405Z,0.00
2018-07-23T02:47:41.331Z,0.00
2018-07-23T02:48:41.267Z,0.00
2018-07-23T02:49:41.185Z,0.00
2018-07-23T02:50:41.127Z,0.00
2018-07-23T02:51:41.039Z,0.00
2018-07-23T02:52:40.963Z,0.00
2018-07-23T02:53:40.890Z,0.00
2018-07-23T02:54:40.824Z,0.00
2018-07-23T02:55:40.742Z,0.00
2018-07-23T02:56:40.669Z,0.00
2018-07-23T02:57:40.600Z,0.00
2018-07-23T02:58:40.528Z,0.00
2018-07-23T02:59:40.507Z,0.00
2018-07-23T03:00:40.377Z,0.00
2018-07-23T03:01:40.319Z,0.00
2018-07-23T03:02:40.230Z,0.00
2018-07-23T03:03:40.160Z,0.00
2018-07-23T03:04:40.086Z,0.00
2018-07-23T03:05:40.014Z,0.00
2018-07-23T03:06:39.936Z,0.00
2018-07-23T03:07:39.862Z,0.00
2018-07-23T03:08:39.793Z,0.00
2018-07-23T03:09:39.718Z,0.00
2018-07-23T03:10:39.647Z,0.00
2018-07-23T03:11:39.573Z,0.00
2018-07-23T03:12:39.495Z,0.00
2018-07-23T03:13:39.422Z,0.00
2018-07-23T03:14:39.349Z,0.00
2018-07-23T03:15:39.275Z,0.00
2018-07-23T03:16:39.218Z,0.00
2018-07-23T03:17:39.129Z,0.00
2018-07-23T03:18:39.057Z,0.00
2018-07-23T03:19:38.984Z,0.00
2018-07-23T03:20:38.914Z,0.00
2018-07-23T03:21:38.861Z,0.00
2018-07-23T03:22:38.761Z,0.00
2018-07-23T03:23:38.687Z,0.00
2018-07-23T03:24:38.620Z,0.00
2018-07-23T03:25:38.559Z,0.00
2018-07-23T03:26:38.468Z,0.00
2018-07-23T03:27:38.401Z,0.00
2018-07-23T03:28:38.324Z,0.00
2018-07-23T03:29:38.247Z,0.00
2018-07-23T03:30:38.179Z,0.00
2018-07-23T03:31:38.105Z,0.00
2018-07-23T03:32:38.026Z,0.00
2018-07-23T03:33:37.959Z,0.00
2018-07-23T03:34:37.897Z,0.00
2018-07-23T03:35:37.806Z,0.00
2018-07-23T03:36:37.732Z,0.00
2018-07-23T03:37:37.661Z,0.00
2018-07-23T03:38:37.604Z,0.00
2018-07-23T03:39:37.522Z,5.63
2018-07-23T03:40:37.439Z,5.63
2018-07-23T03:41:37.366Z,5.63
2018-07-23T03:42:37.292Z,5.63
2018-07-23T03:43:37.220Z,5.63
2018-07-23T03:44:37.166Z,5.63
2018-07-23T03:45:37.077Z,5.63
2018-07-23T03:46:36.999Z,5.63
2018-07-23T03:47:36.927Z,5.63
2018-07-23T03:48:36.866Z,5.63
2018-07-23T03:49:36.784Z,5.63
2018-07-23T03:50:36.709Z,5.63
2018-07-23T03:51:36.636Z,5.63
2018-07-23T03:52:36.562Z,5.63
2018-07-23T03:53:36.503Z,11.25
2018-07-23T03:54:36.411Z,11.25
2018-07-23T03:55:36.336Z,11.25
2018-07-23T03:56:36.268Z,11.25
2018-07-23T03:57:36.195Z,11.25
2018-07-23T03:58:36.116Z,11.25
2018-07-23T03:59:36.047Z,11.25
2018-07-23T04:00:36.022Z,11.25
2018-07-23T04:01:35.894Z,11.25
2018-07-23T04:02:35.823Z,11.25
2018-07-23T04:03:35.808Z,11.25
2018-07-23T04:04:35.686Z,11.25
2018-07-23T04:05:35.605Z,16.88
2018-07-23T04:06:35.528Z,16.88
2018-07-23T04:07:35.465Z,16.88
2018-07-23T04:08:35.382Z,16.88
2018-07-23T04:09:35.308Z,16.88
2018-07-23T04:10:35.234Z,16.88
2018-07-23T04:11:35.166Z,16.88
2018-07-23T04:12:35.090Z,16.88
2018-07-23T04:13:35.015Z,16.88
2018-07-23T04:14:34.942Z,16.88
2018-07-23T04:15:34.873Z,16.88
2018-07-23T04:16:34.808Z,16.88
2018-07-23T04:17:34.763Z,16.88
2018-07-23T04:18:34.646Z,16.88
2018-07-23T04:19:34.610Z,16.88
2018-07-23T04:20:34.500Z,16.88
2018-07-23T04:21:34.438Z,16.88
2018-07-23T04:22:34.357Z,22.50
2018-07-23T04:23:34.303Z,22.50
2018-07-23T04:24:34.233Z,22.50
2018-07-23T04:25:34.132Z,22.50
2018-07-23T04:26:34.064Z,22.50
2018-07-23T04:27:33.984Z,22.50
2018-07-23T04:28:33.913Z,22.50
2018-07-23T04:29:33.852Z,22.50
2018-07-23T04:30:33.778Z,28.13
2018-07-23T04:31:33.692Z,28.13
2018-07-23T04:32:33.625Z,28.13
2018-07-23T04:33:33.544Z,28.13
2018-07-23T04:34:33.498Z,28.13
2018-07-23T04:35:33.409Z,28.13
2018-07-23T04:36:33.324Z,28.13
2018-07-23T04:37:33.250Z,28.13
2018-07-23T04:38:33.180Z,28.13
2018-07-23T04:39:33.104Z,28.13
2018-07-23T04:40:33.038Z,28.13
2018-07-23T04:41:32.957Z,28.13
2018-07-23T04:42:32.885Z,28.13
2018-07-23T04:43:32.812Z,28.13
2018-07-23T04:44:32.736Z,28.13
2018-07-23T04:45:32.665Z,28.13
2018-07-23T04:46:32.589Z,28.13
2018-07-23T04:47:32.516Z,28.13
2018-07-23T04:48:32.475Z,28.13
2018-07-23T04:49:32.384Z,28.13
2018-07-23T04:50:32.299Z,28.13
2018-07-23T04:51:32.223Z,28.13
2018-07-23T04:52:32.156Z,28.13
2018-07-23T04:53:32.076Z,28.13
2018-07-23T04:54:32.009Z,28.13
2018-07-23T04:55:31.926Z,28.13
2018-07-23T04:56:31.858Z,28.13
2018-07-23T04:57:31.787Z,28.13
2018-07-23T04:58:31.710Z,28.13
2018-07-23T04:59:31.638Z,28.13
2018-07-23T05:00:31.563Z,33.75
2018-07-23T05:01:31.489Z,33.75
2018-07-23T05:02:31.417Z,33.75
2018-07-23T05:03:31.346Z,33.75
2018-07-23T05:04:31.266Z,33.75
2018-07-23T05:05:31.194Z,33.75
2018-07-23T05:06:31.118Z,39.38
2018-07-23T05:07:31.051Z,39.38
2018-07-23T05:08:30.978Z,39.38
2018-07-23T05:09:30.904Z,39.38
2018-07-23T05:10:30.830Z,45.00
2018-07-23T05:11:30.772Z,45.00
2018-07-23T05:12:30.696Z,45.00
2018-07-23T05:13:30.607Z,45.00
2018-07-23T05:14:30.536Z,50.63
2018-07-23T05:15:30.464Z,50.63
2018-07-23T05:16:30.405Z,50.63
2018-07-23T05:17:30.311Z,50.63
2018-07-23T05:18:30.237Z,56.25
2018-07-23T05:19:30.164Z,56.25
2018-07-23T05:20:30.092Z,56.25
2018-07-23T05:21:30.025Z,56.25
2018-07-23T05:22:29.945Z,56.25
2018-07-23T05:23:29.873Z,61.88
2018-07-23T05:24:29.852Z,61.88
2018-07-23T05:25:29.724Z,61.88
2018-07-23T05:26:29.650Z,61.88
2018-07-23T05:27:29.580Z,61.88
2018-07-23T05:28:29.504Z,61.88
2018-07-23T05:29:29.428Z,67.50
2018-07-23T05:30:29.354Z,67.50
2018-07-23T05:31:29.281Z,73.13
2018-07-23T05:32:29.215Z,78.75
2018-07-23T05:33:29.136Z,84.38
2018-07-23T05:34:29.084Z,90.00
2018-07-23T05:35:28.989Z,90.00
2018-07-23T05:36:28.915Z,95.63
2018-07-23T05:37:28.843Z,101.25
2018-07-23T05:38:29.002Z,101.25
2018-07-23T05:39:28.725Z,106.88
2018-07-23T05:40:28.649Z,112.50
2018-07-23T05:41:28.556Z,112.50
2018-07-23T05:42:28.478Z,112.50
2018-07-23T05:43:28.402Z,112.50
2018-07-23T05:44:28.343Z,118.13
2018-07-23T05:45:28.264Z,118.13
2018-07-23T05:46:28.188Z,118.13
2018-07-23T05:47:28.110Z,118.13
2018-07-23T05:48:28.056Z,118.13
2018-07-23T05:49:27.961Z,118.13
2018-07-23T05:50:27.910Z,118.13
2018-07-23T05:51:27.815Z,118.13
2018-07-23T05:52:27.741Z,118.13
2018-07-23T05:53:27.669Z,118.13
2018-07-23T05:54:27.596Z,112.50
2018-07-23T05:55:27.526Z,112.50
2018-07-23T05:56:27.514Z,112.50
2018-07-23T05:57:27.399Z,112.50
2018-07-23T05:58:27.305Z,112.50
2018-07-23T05:59:27.227Z,112.50
2018-07-23T06:00:27.162Z,112.50
2018-07-23T06:01:27.111Z,118.13
2018-07-23T06:02:27.020Z,118.13
2018-07-23T06:03:26.955Z,123.75
2018-07-23T06:04:26.861Z,123.75
2018-07-23T06:05:26.795Z,123.75
2018-07-23T06:06:26.775Z,129.38
2018-07-23T06:07:26.650Z,135.00
2018-07-23T06:08:26.571Z,135.00
2018-07-23T06:09:26.501Z,135.00
2018-07-23T06:10:26.431Z,135.00
2018-07-23T06:11:26.361Z,135.00
2018-07-23T06:12:26.284Z,135.00
2018-07-23T06:13:26.215Z,135.00
2018-07-23T06:14:26.136Z,135.00
2018-07-23T06:15:26.072Z,135.00
2018-07-23T06:16:25.990Z,140.63
2018-07-23T06:17:25.972Z,140.63
2018-07-23T06:18:25.846Z,146.25
2018-07-23T06:19:25.769Z,151.88
2018-07-23T06:20:25.696Z,157.50
2018-07-23T06:21:25.630Z,157.50
2018-07-23T06:22:25.552Z,163.13
2018-07-23T06:23:25.478Z,163.13
2018-07-23T06:24:25.407Z,163.13
2018-07-23T06:25:25.347Z,163.13
2018-07-23T06:26:25.257Z,163.13
2018-07-23T06:27:25.185Z,157.50
2018-07-23T06:28:25.115Z,157.50
2018-07-23T06:29:25.054Z,157.50
2018-07-23T06:30:25.015Z,157.50
2018-07-23T06:31:24.896Z,151.88
2018-07-23T06:32:24.825Z,151.88
2018-07-23T06:33:24.752Z,151.88
2018-07-23T06:34:24.687Z,151.88
2018-07-23T06:35:24.604Z,151.88
2018-07-23T06:36:24.532Z,151.88
2018-07-23T06:37:24.464Z,151.88
2018-07-23T06:38:24.405Z,151.88
2018-07-23T06:39:24.335Z,157.50
2018-07-23T06:40:24.249Z,163.13
2018-07-23T06:41:24.180Z,163.13
2018-07-23T06:42:24.095Z,163.13
2018-07-23T06:43:24.110Z,157.50
2018-07-23T06:44:23.947Z,163.13
2018-07-23T06:45:23.879Z,157.50
2018-07-23T06:46:23.813Z,151.88
2018-07-23T06:47:23.735Z,151.88
2018-07-23T06:48:23.659Z,157.50
2018-07-23T06:49:23.584Z,151.88
2018-07-23T06:50:23.517Z,151.88
2018-07-23T06:51:24.059Z,151.88
2018-07-23T06:52:23.375Z,157.50
2018-07-23T06:53:23.296Z,157.50
2018-07-23T06:54:23.224Z,163.13
2018-07-23T06:55:23.160Z,168.75
2018-07-23T06:56:23.081Z,168.75
2018-07-23T06:57:23.047Z,174.38
2018-07-23T06:58:22.947Z,180.00
2018-07-23T06:59:22.929Z,185.63
2018-07-23T07:00:22.790Z,191.25
2018-07-23T07:01:22.720Z,185.63
2018-07-23T07:02:22.650Z,191.25
2018-07-23T07:03:22.637Z,191.25
2018-07-23T07:04:22.590Z,196.88
2018-07-23T07:05:22.429Z,196.88
2018-07-23T07:06:22.376Z,196.88
2018-07-23T07:07:22.289Z,202.50
2018-07-23T07:08:22.213Z,208.13
2018-07-23T07:09:22.141Z,208.13
2018-07-23T07:10:22.072Z,213.75
2018-07-23T07:11:21.991Z,219.38
2018-07-23T07:12:21.921Z,185.63
2018-07-23T07:13:21.871Z,230.63
2018-07-23T07:14:21.779Z,236.25
2018-07-23T07:15:21.706Z,247.50
2018-07-23T07:16:21.633Z,253.13
2018-07-23T07:17:21.562Z,264.38
2018-07-23T07:18:21.491Z,275.63
2018-07-23T07:19:21.414Z,281.25
2018-07-23T07:20:21.342Z,286.88
2018-07-23T07:21:21.304Z,281.25
2018-07-23T07:22:21.219Z,275.63
2018-07-23T07:23:21.124Z,275.63
2018-07-23T07:24:21.071Z,275.63
2018-07-23T07:25:21.025Z,270.00
2018-07-23T07:26:20.937Z,264.38
2018-07-23T07:27:20.835Z,264.38
2018-07-23T07:28:20.769Z,264.38
2018-07-23T07:29:20.701Z,258.75
2018-07-23T07:30:20.620Z,258.75
2018-07-23T07:31:20.551Z,258.75
2018-07-23T07:32:20.479Z,264.38
2018-07-23T07:33:20.405Z,264.38
2018-07-23T07:34:20.334Z,264.38
2018-07-23T07:35:20.261Z,275.63
2018-07-23T07:36:20.190Z,275.63
2018-07-23T07:37:20.146Z,275.63
2018-07-23T07:38:20.075Z,270.00
2018-07-23T07:39:20.001Z,264.38
2018-07-23T07:40:19.914Z,264.38
2018-07-23T07:41:19.832Z,270.00
2018-07-23T07:42:19.758Z,264.38
2018-07-23T07:43:19.692Z,264.38
2018-07-23T07:44:19.616Z,275.63
2018-07-23T07:45:19.547Z,281.25
2018-07-23T07:46:19.480Z,292.50
2018-07-23T07:47:19.402Z,292.50
2018-07-23T07:48:19.332Z,286.88
2018-07-23T07:49:19.261Z,292.50
2018-07-23T07:50:19.190Z,292.50
2018-07-23T07:51:19.116Z,286.88
2018-07-23T07:52:19.052Z,292.50
2018-07-23T07:53:18.988Z,303.75
2018-07-23T07:54:18.912Z,309.38
2018-07-23T07:55:18.837Z,315.00
2018-07-23T07:56:18.768Z,315.00
2018-07-23T07:57:18.711Z,320.63
2018-07-23T07:58:18.638Z,303.75
2018-07-23T07:59:18.641Z,281.25
2018-07-23T08:00:18.475Z,275.63
2018-07-23T08:01:18.404Z,275.63
2018-07-23T08:02:18.338Z,275.63
2018-07-23T08:03:18.269Z,281.25
2018-07-23T08:04:18.190Z,292.50
2018-07-23T08:05:18.120Z,292.50
2018-07-23T08:06:18.056Z,303.75
2018-07-23T08:07:18.004Z,292.50
2018-07-23T08:08:17.906Z,303.75
2018-07-23T08:09:17.835Z,309.38
2018-07-23T08:10:17.767Z,315.00
2018-07-23T08:11:17.694Z,292.50
2018-07-23T08:12:17.640Z,315.00
2018-07-23T08:13:17.571Z,309.38
2018-07-23T08:14:17.479Z,298.13
2018-07-23T08:15:17.410Z,303.75
2018-07-23T08:16:17.381Z,303.75
2018-07-23T08:17:17.271Z,303.75
2018-07-23T08:18:17.202Z,303.75
2018-07-23T08:19:17.131Z,315.00
2018-07-23T08:20:17.058Z,303.75
2018-07-23T08:21:16.985Z,315.00
2018-07-23T08:22:16.913Z,298.13
2018-07-23T08:23:16.857Z,326.25
2018-07-23T08:24:16.774Z,331.88
2018-07-23T08:25:16.705Z,337.50
2018-07-23T08:26:16.634Z,343.13
2018-07-23T08:27:16.560Z,348.75
2018-07-23T08:28:16.490Z,360.00
2018-07-23T08:29:16.425Z,360.00
2018-07-23T08:30:16.352Z,365.63
2018-07-23T08:31:16.283Z,365.63
2018-07-23T08:32:16.246Z,360.00
2018-07-23T08:33:16.157Z,360.00
2018-07-23T08:34:16.073Z,360.00
2018-07-23T08:35:15.997Z,360.00
2018-07-23T08:36:15.931Z,360.00
2018-07-23T08:37:15.897Z,360.00
2018-07-23T08:38:15.801Z,360.00
2018-07-23T08:39:15.716Z,360.00
2018-07-23T08:40:15.648Z,360.00
2018-07-23T08:41:15.580Z,360.00
2018-07-23T08:42:15.505Z,365.63
2018-07-23T08:43:15.437Z,360.00
2018-07-23T08:44:15.372Z,360.00
2018-07-23T08:45:15.304Z,360.00
2018-07-23T08:46:15.229Z,360.00
2018-07-23T08:47:15.158Z,365.63
2018-07-23T08:48:15.089Z,371.25
2018-07-23T08:49:15.024Z,382.50
2018-07-23T08:50:14.955Z,388.13
2018-07-23T08:51:14.892Z,393.75
2018-07-23T08:52:14.870Z,382.50
2018-07-23T08:53:14.736Z,388.13
2018-07-23T08:54:14.671Z,388.13
2018-07-23T08:55:14.599Z,393.75
2018-07-23T08:56:14.616Z,388.13
2018-07-23T08:57:14.463Z,382.50
2018-07-23T08:58:14.399Z,399.38
2018-07-23T08:59:14.319Z,399.38
2018-07-23T09:00:14.252Z,393.75
2018-07-23T09:01:14.201Z,399.38
2018-07-23T09:02:14.158Z,382.50
2018-07-23T09:03:14.040Z,376.88
2018-07-23T09:04:13.983Z,354.38
2018-07-23T09:05:13.904Z,348.75
2018-07-23T09:06:13.832Z,348.75
2018-07-23T09:07:13.768Z,354.38
2018-07-23T09:08:13.702Z,360.00
2018-07-23T09:09:13.624Z,393.75
2018-07-23T09:10:13.555Z,399.38
2018-07-23T09:11:13.492Z,388.13
2018-07-23T09:12:13.424Z,376.88
2018-07-23T09:13:13.353Z,371.25
2018-07-23T09:14:13.282Z,354.38
2018-07-23T09:15:13.211Z,354.38
2018-07-23T09:16:13.142Z,354.38
2018-07-23T09:17:13.103Z,326.25
2018-07-23T09:18:13.005Z,331.88
2018-07-23T09:19:12.936Z,337.50
2018-07-23T09:20:12.865Z,343.13
2018-07-23T09:21:12.808Z,348.75
2018-07-23T09:22:12.791Z,258.75
2018-07-23T09:23:12.655Z,348.75
2018-07-23T09:24:12.592Z,348.75
2018-07-23T09:25:12.519Z,360.00
2018-07-23T09:26:12.453Z,360.00
2018-07-23T09:27:12.382Z,365.63
2018-07-23T09:28:12.329Z,354.38
2018-07-23T09:29:12.254Z,360.00
2018-07-23T09:30:12.208Z,354.38
2018-07-23T09:31:12.105Z,354.38
2018-07-23T09:32:12.069Z,354.38
2018-07-23T09:33:11.966Z,331.88
2018-07-23T09:34:11.892Z,315.00
2018-07-23T09:35:11.827Z,320.63
2018-07-23T09:36:11.775Z,326.25
2018-07-23T09:37:11.716Z,337.50
2018-07-23T09:38:11.621Z,337.50
2018-07-23T09:39:11.548Z,343.13
2018-07-23T09:40:11.531Z,348.75
2018-07-23T09:41:11.422Z,360.00
2018-07-23T09:42:11.341Z,382.50
2018-07-23T09:43:11.294Z,393.75
2018-07-23T09:44:11.209Z,410.63
2018-07-23T09:45:11.140Z,416.25
2018-07-23T09:46:11.069Z,416.25
2018-07-23T09:47:10.999Z,416.25
2018-07-23T09:48:10.930Z,421.88
2018-07-23T09:49:10.862Z,421.88
2018-07-23T09:50:10.793Z,421.88
2018-07-23T09:51:10.730Z,416.25
2018-07-23T09:52:10.658Z,438.75
2018-07-23T09:53:10.585Z,444.38
2018-07-23T09:54:10.518Z,450.00
2018-07-23T09:55:10.443Z,438.75
2018-07-23T09:56:10.380Z,427.50
2018-07-23T09:57:10.312Z,438.75
2018-07-23T09:58:10.235Z,438.75
2018-07-23T09:59:10.175Z,438.75
2018-07-23T10:00:10.101Z,438.75
2018-07-23T10:01:10.034Z,416.25
2018-07-23T10:02:09.962Z,405.00
2018-07-23T10:03:09.928Z,405.00
2018-07-23T10:04:09.832Z,410.63
2018-07-23T10:05:09.761Z,438.75
2018-07-23T10:06:09.693Z,483.75
2018-07-23T10:07:09.617Z,489.38
2018-07-23T10:08:09.549Z,528.75
2018-07-23T10:09:09.480Z,545.63
2018-07-23T10:10:09.413Z,545.63
2018-07-23T10:11:09.370Z,568.13
2018-07-23T10:12:09.272Z,568.13
2018-07-23T10:13:09.204Z,579.38
2018-07-23T10:14:09.140Z,579.38
2018-07-23T10:15:09.094Z,579.38
2018-07-23T10:16:08.998Z,585.00
2018-07-23T10:17:08.930Z,585.00
2018-07-23T10:18:08.893Z,590.63
2018-07-23T10:19:08.795Z,585.00
2018-07-23T10:20:08.738Z,585.00
2018-07-23T10:21:08.662Z,579.38
2018-07-23T10:22:08.615Z,573.75
2018-07-23T10:23:08.523Z,568.13
2018-07-23T10:24:08.454Z,568.13
2018-07-23T10:25:08.398Z,579.38
2018-07-23T10:26:08.330Z,596.25
2018-07-23T10:27:08.250Z,607.50
2018-07-23T10:28:08.181Z,613.13
2018-07-23T10:29:08.112Z,618.75
2018-07-23T10:30:08.047Z,624.38
2018-07-23T10:31:07.974Z,618.75
2018-07-23T10:32:07.912Z,613.13
2018-07-23T10:33:07.842Z,630.00
2018-07-23T10:34:07.769Z,658.13
2018-07-23T10:35:07.729Z,680.63
2018-07-23T10:36:07.636Z,686.25
2018-07-23T10:37:07.617Z,680.63
2018-07-23T10:38:07.499Z,663.75
2018-07-23T10:39:07.434Z,663.75
2018-07-23T10:40:07.371Z,669.38
2018-07-23T10:41:07.367Z,686.25
2018-07-23T10:42:07.230Z,703.13
2018-07-23T10:43:07.161Z,680.63
2018-07-23T10:44:07.097Z,697.50
2018-07-23T10:45:07.039Z,708.75
2018-07-23T10:46:06.958Z,697.50
2018-07-23T10:47:06.893Z,669.38
2018-07-23T10:48:06.823Z,748.13
2018-07-23T10:49:06.761Z,742.50
2018-07-23T10:50:06.688Z,731.25
2018-07-23T10:51:06.623Z,725.63
2018-07-23T10:52:06.555Z,714.38
2018-07-23T10:53:06.495Z,720.00
2018-07-23T10:54:06.423Z,697.50
2018-07-23T10:55:06.384Z,680.63
2018-07-23T10:56:06.293Z,680.63
2018-07-23T10:57:06.246Z,680.63
2018-07-23T10:58:06.150Z,669.38
2018-07-23T10:59:06.083Z,669.38
2018-07-23T11:00:06.016Z,663.75
2018-07-23T11:01:05.956Z,663.75
2018-07-23T11:02:05.888Z,658.13
2018-07-23T11:03:05.821Z,663.75
2018-07-23T11:04:05.754Z,658.13
2018-07-23T11:05:05.684Z,652.50
2018-07-23T11:06:05.623Z,658.13
2018-07-23T11:07:05.549Z,641.25
2018-07-23T11:08:05.484Z,601.88
2018-07-23T11:09:05.416Z,590.63
2018-07-23T11:10:05.354Z,624.38
2018-07-23T11:11:05.284Z,641.25
2018-07-23T11:12:05.215Z,646.88
2018-07-23T11:13:05.157Z,663.75
2018-07-23T11:14:05.082Z,641.25
2018-07-23T11:15:05.012Z,635.63
2018-07-23T11:16:04.949Z,641.25
2018-07-23T11:17:04.879Z,663.75
2018-07-23T11:18:04.815Z,652.50
2018-07-23T11:19:04.742Z,624.38
2018-07-23T11:20:04.698Z,686.25
2018-07-23T11:21:04.616Z,708.75
2018-07-23T11:22:04.553Z,725.63
2018-07-23T11:23:04.478Z,725.63
2018-07-23T11:24:04.441Z,736.88
2018-07-23T11:25:38.323Z,765.00
2018-07-23T11:26:04.279Z,770.63
2018-07-23T11:27:04.233Z,753.75
2018-07-23T11:28:04.142Z,742.50
2018-07-23T11:29:04.094Z,658.13
2018-07-23T11:30:04.010Z,652.50
2018-07-23T11:31:03.944Z,765.00
2018-07-23T11:32:03.940Z,776.25
2018-07-23T11:33:03.809Z,787.50
2018-07-23T11:34:03.740Z,680.63
2018-07-23T11:35:03.672Z,680.63
2018-07-23T11:36:03.606Z,686.25
2018-07-23T11:37:03.544Z,765.00
2018-07-23T11:38:03.470Z,798.75
2018-07-23T11:39:03.410Z,787.50
2018-07-23T11:40:03.341Z,798.75
2018-07-23T11:41:03.273Z,810.00
2018-07-23T11:42:03.206Z,804.38
2018-07-23T11:43:03.139Z,798.75
2018-07-23T11:44:03.074Z,810.00
2018-07-23T11:45:03.011Z,815.63
2018-07-23T11:46:02.943Z,832.50
2018-07-23T11:47:02.875Z,849.38
2018-07-23T11:48:02.814Z,866.25
2018-07-23T11:49:02.756Z,866.25
2018-07-23T11:50:02.678Z,871.88
2018-07-23T11:51:02.606Z,883.13
2018-07-23T11:52:02.544Z,888.75
2018-07-23T11:53:02.477Z,883.13
2018-07-23T11:54:02.410Z,883.13
2018-07-23T11:55:02.364Z,883.13
2018-07-23T11:56:02.275Z,883.13
2018-07-23T11:57:02.282Z,877.50
2018-07-23T11:58:02.150Z,877.50
2018-07-23T11:59:02.095Z,883.13
2018-07-23T12:00:02.025Z,843.75
2018-07-23T12:01:01.943Z,883.13
2018-07-23T12:02:01.878Z,883.13
2018-07-23T12:03:01.821Z,883.13
2018-07-23T12:04:01.750Z,883.13
2018-07-23T12:05:01.685Z,765.00
2018-07-23T12:06:01.623Z,742.50
2018-07-23T12:07:01.558Z,725.63
2018-07-23T12:08:01.555Z,714.38
2018-07-23T12:09:01.470Z,714.38
2018-07-23T12:10:01.356Z,714.38
2018-07-23T12:11:01.286Z,725.63
2018-07-23T12:12:01.228Z,714.38
2018-07-23T12:13:01.161Z,691.88
2018-07-23T12:14:01.109Z,708.75
2018-07-23T12:15:01.030Z,714.38
2018-07-23T12:16:00.960Z,708.75
2018-07-23T12:17:00.894Z,663.75
2018-07-23T12:18:00.852Z,635.63
2018-07-23T12:19:00.791Z,607.50
2018-07-23T12:20:00.709Z,601.88
2018-07-23T12:21:00.631Z,579.38
2018-07-23T12:22:00.605Z,551.25
2018-07-23T12:23:00.494Z,523.13
2018-07-23T12:24:00.439Z,495.00
2018-07-23T12:25:00.367Z,489.38
2018-07-23T12:26:00.335Z,489.38
2018-07-23T12:27:00.232Z,545.63
2018-07-23T12:28:00.191Z,568.13
2018-07-23T12:29:00.104Z,613.13
2018-07-23T12:30:00.052Z,641.25
2018-07-23T12:30:59.979Z,641.25
2018-07-23T12:31:59.905Z,658.13
2018-07-23T12:32:59.897Z,686.25
2018-07-23T12:33:59.807Z,810.00
2018-07-23T12:34:59.703Z,753.75
2018-07-23T12:35:59.647Z,798.75
2018-07-23T12:36:59.613Z,849.38
2018-07-23T12:37:59.509Z,900.00
2018-07-23T12:38:59.470Z,911.25
2018-07-23T12:39:59.448Z,922.50
2018-07-23T12:40:59.317Z,933.75
2018-07-23T12:41:59.243Z,961.88
2018-07-23T12:42:59.177Z,1006.88
2018-07-23T12:43:59.107Z,995.63
2018-07-23T12:44:59.044Z,922.50
2018-07-23T12:45:58.977Z,838.13